createdAt,value
2023-04-10T00:00:11.706Z,644.00
2023-04-10T00:01:11.711Z,640.00
2023-04-10T00:02:11.792Z,649.00
2023-04-10T00:03:12.010Z,649.00
2023-04-10T00:04:11.867Z,652.00
2023-04-10T00:05:11.812Z,656.00
2023-04-10T00:06:11.650Z,665.00
2023-04-10T00:07:11.648Z,695.00
2023-04-10T00:08:11.649Z,701.00
2023-04-10T00:09:11.582Z,726.00
2023-04-10T00:10:11.575Z,739.00
2023-04-10T00:11:11.545Z,720.00
2023-04-10T00:12:11.535Z,754.00
2023-04-10T00:13:11.517Z,768.00
2023-04-10T00:14:11.488Z,771.00
2023-04-10T00:15:11.465Z,790.00
2023-04-10T00:16:11.452Z,790.00
2023-04-10T00:17:11.406Z,791.00
2023-04-10T00:18:11.387Z,791.00
2023-04-10T00:19:11.363Z,797.00
2023-04-10T00:20:11.348Z,806.00
2023-04-10T00:21:11.328Z,838.00
2023-04-10T00:22:11.313Z,857.00
2023-04-10T00:23:11.299Z,885.00
2023-04-10T00:24:11.277Z,891.00
2023-04-10T00:25:11.306Z,900.00
2023-04-10T00:26:11.236Z,900.00
2023-04-10T00:27:11.199Z,903.00
2023-04-10T00:28:11.208Z,911.00
2023-04-10T00:29:11.180Z,916.00
2023-04-10T00:30:11.136Z,929.00
2023-04-10T00:31:11.121Z,941.00
2023-04-10T00:32:11.146Z,943.00
2023-04-10T00:33:11.135Z,947.00
2023-04-10T00:34:11.071Z,944.00
2023-04-10T00:35:11.038Z,944.00
2023-04-10T00:36:11.081Z,963.00
2023-04-10T00:37:10.994Z,957.00
2023-04-10T00:38:10.981Z,980.00
2023-04-10T00:39:10.963Z,979.00
2023-04-10T00:40:10.981Z,982.00
2023-04-10T00:41:11.002Z,988.00
2023-04-10T00:42:11.024Z,962.00
2023-04-10T00:43:11.032Z,990.00
2023-04-10T00:44:11.051Z,994.00
2023-04-10T00:45:11.064Z,978.00
2023-04-10T00:46:11.088Z,992.00
2023-04-10T00:47:11.101Z,990.00
2023-04-10T00:48:11.120Z,1018.00
2023-04-10T00:49:11.136Z,1026.00
2023-04-10T00:50:11.154Z,1017.00
2023-04-10T00:51:11.173Z,1035.00
2023-04-10T00:52:11.177Z,1037.00
2023-04-10T00:53:11.206Z,1036.00
2023-04-10T00:54:11.232Z,1026.00
2023-04-10T00:55:11.250Z,1023.00
2023-04-10T00:56:11.263Z,1041.00
2023-04-10T00:57:11.269Z,1038.00
2023-04-10T00:58:11.284Z,1040.00
2023-04-10T00:59:11.316Z,1047.00
2023-04-10T01:00:11.329Z,1046.00
2023-04-10T01:01:11.386Z,1041.00
2023-04-10T01:02:11.396Z,1042.00
2023-04-10T01:03:11.442Z,1045.00
2023-04-10T01:04:11.457Z,1039.00
2023-04-10T01:05:11.281Z,1060.00
2023-04-10T01:06:11.271Z,1061.00
2023-04-10T01:07:11.233Z,1074.00
2023-04-10T01:08:11.233Z,1062.00
2023-04-10T01:09:11.207Z,1060.00
2023-04-10T01:10:11.161Z,1063.00
2023-04-10T01:11:11.139Z,1066.00
2023-04-10T01:12:11.119Z,1047.00
2023-04-10T01:13:11.108Z,1024.00
2023-04-10T01:14:11.095Z,1025.00
2023-04-10T01:15:11.061Z,1006.00
2023-04-10T01:16:11.037Z,1007.00
2023-04-10T01:17:11.029Z,980.00
2023-04-10T01:18:10.992Z,991.00
2023-04-10T01:19:10.983Z,985.00
2023-04-10T01:20:10.959Z,953.00
2023-04-10T01:21:10.925Z,953.00
2023-04-10T01:22:10.920Z,943.00
2023-04-10T01:23:10.884Z,938.00
2023-04-10T01:24:10.913Z,929.00
2023-04-10T01:25:10.853Z,925.00
2023-04-10T01:26:10.830Z,905.00
2023-04-10T01:27:10.823Z,895.00
2023-04-10T01:28:10.790Z,894.00
2023-04-10T01:29:10.794Z,869.00
2023-04-10T01:30:10.754Z,866.00
2023-04-10T01:31:10.743Z,859.00
2023-04-10T01:32:10.697Z,858.00
2023-04-10T01:33:10.701Z,840.00
2023-04-10T01:34:10.700Z,851.00
2023-04-10T01:35:10.678Z,834.00
2023-04-10T01:36:10.730Z,833.00
2023-04-10T01:37:10.699Z,814.00
2023-04-10T01:38:10.732Z,826.00
2023-04-10T01:39:10.741Z,813.00
2023-04-10T01:40:10.766Z,811.00
2023-04-10T01:41:10.776Z,803.00
2023-04-10T01:42:10.792Z,766.00
2023-04-10T01:43:10.810Z,789.00
2023-04-10T01:44:10.849Z,768.00
2023-04-10T01:45:10.874Z,763.00
2023-04-10T01:46:10.927Z,763.00
2023-04-10T01:47:10.880Z,772.00
2023-04-10T01:48:10.929Z,757.00
2023-04-10T01:49:10.989Z,741.00
2023-04-10T01:50:11.034Z,740.00
2023-04-10T01:51:11.085Z,726.00
2023-04-10T01:52:11.090Z,712.00
2023-04-10T01:53:11.106Z,723.00
2023-04-10T01:54:11.121Z,709.00
2023-04-10T01:55:11.131Z,704.00
2023-04-10T01:56:11.138Z,711.00
2023-04-10T01:57:11.137Z,716.00
2023-04-10T01:58:11.190Z,695.00
2023-04-10T01:59:11.172Z,727.00
2023-04-10T02:00:11.227Z,704.00
2023-04-10T02:01:22.558Z,698.00
2023-04-10T02:02:12.407Z,699.00
2023-04-10T02:03:11.480Z,696.00
2023-04-10T02:04:11.300Z,699.00
2023-04-10T02:05:11.171Z,697.00
2023-04-10T02:06:11.104Z,698.00
2023-04-10T02:07:11.073Z,693.00
2023-04-10T02:08:11.044Z,676.00
2023-04-10T02:09:11.070Z,682.00
2023-04-10T02:10:10.996Z,676.00
2023-04-10T02:11:10.973Z,664.00
2023-04-10T02:12:10.952Z,662.00
2023-04-10T02:13:10.933Z,661.00
2023-04-10T02:14:10.961Z,664.00
2023-04-10T02:15:10.900Z,673.00
2023-04-10T02:16:10.915Z,663.00
2023-04-10T02:17:10.854Z,666.00
2023-04-10T02:18:10.885Z,665.00
2023-04-10T02:19:10.903Z,681.00
2023-04-10T02:20:10.901Z,679.00
2023-04-10T02:21:10.934Z,676.00
2023-04-10T02:22:10.896Z,677.00
2023-04-10T02:23:10.878Z,678.00
2023-04-10T02:24:10.888Z,682.00
2023-04-10T02:25:10.854Z,689.00
2023-04-10T02:26:10.858Z,699.00
2023-04-10T02:27:10.817Z,732.00
2023-04-10T02:28:10.793Z,679.00
2023-04-10T02:29:10.775Z,690.00
2023-04-10T02:30:10.749Z,708.00
2023-04-10T02:31:10.786Z,733.00
2023-04-10T02:32:10.710Z,761.00
2023-04-10T02:33:10.714Z,774.00
2023-04-10T02:34:10.722Z,792.00
2023-04-10T02:35:10.683Z,784.00
2023-04-10T02:36:10.688Z,792.00
2023-04-10T02:37:10.624Z,792.00
2023-04-10T02:38:10.653Z,793.00
2023-04-10T02:39:10.614Z,795.00
2023-04-10T02:40:10.582Z,800.00
2023-04-10T02:41:10.550Z,819.00
2023-04-10T02:42:10.538Z,848.00
2023-04-10T02:43:10.524Z,845.00
2023-04-10T02:44:10.498Z,850.00
2023-04-10T02:45:10.490Z,848.00
2023-04-10T02:46:10.573Z,859.00
2023-04-10T02:47:10.470Z,863.00
2023-04-10T02:48:10.446Z,854.00
2023-04-10T02:49:10.434Z,877.00
2023-04-10T02:50:10.415Z,873.00
2023-04-10T02:51:10.388Z,874.00
2023-04-10T02:52:10.373Z,878.00
2023-04-10T02:53:10.371Z,882.00
2023-04-10T02:54:10.346Z,885.00
2023-04-10T02:55:10.328Z,908.00
2023-04-10T02:56:10.305Z,903.00
2023-04-10T02:57:10.297Z,900.00
2023-04-10T02:58:10.282Z,923.00
2023-04-10T02:59:10.268Z,914.00
2023-04-10T03:00:10.269Z,920.00
2023-04-10T03:01:10.225Z,921.00
2023-04-10T03:02:10.272Z,923.00
2023-04-10T03:03:10.357Z,942.00
2023-04-10T03:04:10.272Z,921.00
2023-04-10T03:05:10.186Z,941.00
2023-04-10T03:06:10.171Z,922.00
2023-04-10T03:07:10.150Z,923.00
2023-04-10T03:08:10.132Z,926.00
2023-04-10T03:09:10.116Z,935.00
2023-04-10T03:10:10.196Z,945.00
2023-04-10T03:11:10.103Z,951.00
2023-04-10T03:12:10.077Z,950.00
2023-04-10T03:13:10.067Z,968.00
2023-04-10T03:14:10.050Z,945.00
2023-04-10T03:15:10.054Z,954.00
2023-04-10T03:16:10.062Z,956.00
2023-04-10T03:17:09.997Z,948.00
2023-04-10T03:18:10.017Z,966.00
2023-04-10T03:19:09.952Z,954.00
2023-04-10T03:20:09.973Z,953.00
2023-04-10T03:21:09.910Z,953.00
2023-04-10T03:22:09.894Z,967.00
2023-04-10T03:23:09.885Z,961.00
2023-04-10T03:24:09.876Z,977.00
2023-04-10T03:25:09.892Z,972.00
2023-04-10T03:26:09.910Z,973.00
2023-04-10T03:27:09.901Z,977.00
2023-04-10T03:28:09.900Z,995.00
2023-04-10T03:29:09.919Z,995.00
2023-04-10T03:30:09.937Z,976.00
2023-04-10T03:31:10.017Z,983.00
2023-04-10T03:32:09.936Z,981.00
2023-04-10T03:33:09.936Z,968.00
2023-04-10T03:34:09.955Z,973.00
2023-04-10T03:35:09.973Z,988.00
2023-04-10T03:36:09.991Z,988.00
2023-04-10T03:37:10.006Z,1004.00
2023-04-10T03:38:09.997Z,998.00
2023-04-10T03:39:10.018Z,987.00
2023-04-10T03:40:09.985Z,987.00
2023-04-10T03:41:10.010Z,989.00
2023-04-10T03:42:09.956Z,976.00
2023-04-10T03:43:09.944Z,985.00
2023-04-10T03:44:09.909Z,997.00
2023-04-10T03:45:09.893Z,975.00
2023-04-10T03:46:09.897Z,995.00
2023-04-10T03:47:09.990Z,991.00
2023-04-10T03:48:09.839Z,989.00
2023-04-10T03:49:09.833Z,1001.00
2023-04-10T03:50:09.797Z,985.00
2023-04-10T03:51:09.784Z,993.00
2023-04-10T03:52:09.765Z,978.00
2023-04-10T03:53:09.754Z,993.00
2023-04-10T03:54:09.719Z,996.00
2023-04-10T03:55:09.702Z,982.00
2023-04-10T03:56:09.709Z,978.00
2023-04-10T03:57:09.706Z,977.00
2023-04-10T03:58:09.726Z,960.00
2023-04-10T03:59:09.746Z,954.00
2023-04-10T04:00:09.747Z,955.00
2023-04-10T04:01:09.782Z,953.00
2023-04-10T04:02:09.875Z,954.00
2023-04-10T04:03:09.915Z,931.00
2023-04-10T04:04:09.906Z,935.00
2023-04-10T04:05:09.970Z,940.00
2023-04-10T04:06:09.858Z,927.00
2023-04-10T04:07:09.881Z,924.00
2023-04-10T04:08:09.890Z,916.00
2023-04-10T04:09:09.928Z,900.00
2023-04-10T04:10:09.943Z,907.00
2023-04-10T04:11:09.964Z,898.00
2023-04-10T04:12:09.957Z,872.00
2023-04-10T04:13:09.982Z,868.00
2023-04-10T04:14:10.010Z,840.00
2023-04-10T04:15:10.023Z,831.00
2023-04-10T04:16:10.069Z,819.00
2023-04-10T04:17:10.054Z,808.00
2023-04-10T04:18:10.085Z,785.00
2023-04-10T04:19:10.092Z,778.00
2023-04-10T04:20:10.111Z,771.00
2023-04-10T04:21:10.147Z,762.00
2023-04-10T04:22:10.169Z,746.00
2023-04-10T04:23:10.221Z,733.00
2023-04-10T04:24:10.265Z,739.00
2023-04-10T04:25:10.277Z,719.00
2023-04-10T04:26:10.301Z,715.00
2023-04-10T04:27:10.314Z,702.00
2023-04-10T04:28:10.331Z,680.00
2023-04-10T04:29:10.362Z,684.00
2023-04-10T04:30:10.376Z,667.00
2023-04-10T04:31:10.415Z,656.00
2023-04-10T04:32:10.504Z,665.00
2023-04-10T04:33:10.430Z,655.00
2023-04-10T04:34:10.438Z,666.00
2023-04-10T04:35:10.452Z,665.00
2023-04-10T04:36:10.505Z,665.00
2023-04-10T04:37:10.495Z,671.00
2023-04-10T04:38:10.494Z,680.00
2023-04-10T04:39:10.526Z,672.00
2023-04-10T04:40:10.533Z,700.00
2023-04-10T04:41:10.537Z,691.00
2023-04-10T04:42:10.516Z,692.00
2023-04-10T04:43:10.513Z,697.00
2023-04-10T04:44:10.485Z,701.00
2023-04-10T04:45:10.466Z,706.00
2023-04-10T04:46:10.520Z,728.00
2023-04-10T04:47:10.440Z,727.00
2023-04-10T04:48:10.460Z,733.00
2023-04-10T04:49:10.398Z,756.00
2023-04-10T04:50:10.374Z,758.00
2023-04-10T04:51:10.366Z,756.00
2023-04-10T04:52:10.341Z,754.00
2023-04-10T04:53:10.328Z,776.00
2023-04-10T04:54:10.318Z,779.00
2023-04-10T04:55:10.288Z,792.00
2023-04-10T04:56:10.279Z,803.00
2023-04-10T04:57:10.348Z,803.00
2023-04-10T04:58:10.329Z,813.00
2023-04-10T04:59:10.333Z,823.00
2023-04-10T05:00:10.361Z,818.00
2023-04-10T05:01:10.386Z,840.00
2023-04-10T05:02:10.492Z,836.00
2023-04-10T05:03:10.574Z,849.00
2023-04-10T05:04:10.490Z,841.00
2023-04-10T05:05:10.469Z,861.00
2023-04-10T05:06:10.471Z,850.00
2023-04-10T05:07:10.504Z,860.00
2023-04-10T05:08:10.519Z,857.00
2023-04-10T05:09:10.534Z,865.00
2023-04-10T05:10:10.553Z,862.00
2023-04-10T05:11:10.575Z,868.00
2023-04-10T05:12:10.567Z,871.00
2023-04-10T05:13:10.577Z,868.00
2023-04-10T05:14:10.591Z,885.00
2023-04-10T05:15:10.608Z,882.00
2023-04-10T05:16:10.642Z,888.00
2023-04-10T05:17:10.632Z,881.00
2023-04-10T05:18:10.726Z,890.00
2023-04-10T05:19:10.676Z,892.00
2023-04-10T05:20:10.684Z,889.00
2023-04-10T05:21:10.718Z,900.00
2023-04-10T05:22:10.730Z,912.00
2023-04-10T05:23:10.757Z,892.00
2023-04-10T05:24:10.799Z,927.00
2023-04-10T05:25:10.822Z,914.00
2023-04-10T05:26:10.844Z,927.00
2023-04-10T05:27:10.847Z,933.00
2023-04-10T05:28:10.870Z,921.00
2023-04-10T05:29:10.884Z,916.00
2023-04-10T05:30:10.918Z,912.00
2023-04-10T05:31:10.946Z,911.00
2023-04-10T05:32:10.944Z,912.00
2023-04-10T05:33:10.984Z,914.00
2023-04-10T05:34:11.001Z,928.00
2023-04-10T05:35:11.016Z,925.00
2023-04-10T05:36:11.090Z,918.00
2023-04-10T05:37:11.026Z,930.00
2023-04-10T05:38:11.048Z,919.00
2023-04-10T05:39:11.075Z,911.00
2023-04-10T05:40:11.104Z,922.00
2023-04-10T05:41:11.101Z,931.00
2023-04-10T05:42:11.107Z,932.00
2023-04-10T05:43:11.134Z,936.00
2023-04-10T05:44:11.140Z,933.00
2023-04-10T05:45:11.176Z,936.00
2023-04-10T05:46:11.213Z,943.00
2023-04-10T05:47:11.234Z,958.00
2023-04-10T05:48:11.223Z,962.00
2023-04-10T05:49:11.242Z,963.00
2023-04-10T05:50:11.345Z,961.00
2023-04-10T05:51:11.301Z,936.00
2023-04-10T05:52:11.305Z,940.00
2023-04-10T05:53:11.303Z,941.00
2023-04-10T05:54:11.268Z,943.00
2023-04-10T05:55:11.246Z,945.00
2023-04-10T05:56:11.251Z,949.00
2023-04-10T05:57:11.227Z,959.00
2023-04-10T05:58:11.177Z,967.00
2023-04-10T05:59:11.174Z,947.00
2023-04-10T06:00:11.182Z,958.00
2023-04-10T06:01:11.150Z,959.00
2023-04-10T06:02:11.162Z,967.00
2023-04-10T06:03:11.148Z,960.00
2023-04-10T06:04:11.324Z,963.00
2023-04-10T06:05:11.086Z,957.00
2023-04-10T06:06:11.059Z,956.00
2023-04-10T06:07:11.061Z,959.00
2023-04-10T06:08:11.098Z,962.00
2023-04-10T06:09:11.103Z,952.00
2023-04-10T06:10:11.127Z,947.00
2023-04-10T06:11:11.189Z,952.00
2023-04-10T06:12:11.178Z,953.00
2023-04-10T06:13:11.376Z,941.00
2023-04-10T06:14:11.206Z,937.00
2023-04-10T06:15:11.257Z,957.00
2023-04-10T06:16:11.315Z,931.00
2023-04-10T06:17:11.423Z,931.00
2023-04-10T06:18:11.287Z,930.00
2023-04-10T06:19:11.330Z,926.00
2023-04-10T06:20:11.356Z,926.00
2023-04-10T06:21:11.378Z,922.00
2023-04-10T06:22:11.394Z,913.00
2023-04-10T06:23:11.436Z,931.00
2023-04-10T06:24:12.792Z,914.00
2023-04-10T06:25:11.464Z,910.00
2023-04-10T06:26:11.500Z,909.00
2023-04-10T06:27:11.527Z,909.00
2023-04-10T06:28:11.534Z,907.00
2023-04-10T06:29:11.529Z,885.00
2023-04-10T06:30:11.574Z,891.00
2023-04-10T06:31:11.651Z,893.00
2023-04-10T06:32:11.638Z,882.00
2023-04-10T06:33:11.652Z,881.00
2023-04-10T06:34:11.646Z,874.00
2023-04-10T06:35:11.707Z,870.00
2023-04-10T06:36:11.727Z,856.00
2023-04-10T06:37:11.727Z,866.00
2023-04-10T06:38:11.726Z,864.00
2023-04-10T06:39:11.758Z,868.00
2023-04-10T06:40:11.796Z,858.00
2023-04-10T06:41:11.794Z,846.00
2023-04-10T06:42:11.807Z,852.00
2023-04-10T06:43:11.836Z,845.00
2023-04-10T06:44:11.861Z,818.00
2023-04-10T06:45:11.873Z,841.00
2023-04-10T06:46:11.951Z,842.00
2023-04-10T06:47:12.026Z,826.00
2023-04-10T06:48:11.915Z,827.00
2023-04-10T06:49:11.892Z,827.00
2023-04-10T06:50:11.881Z,826.00
2023-04-10T06:51:11.840Z,833.00
2023-04-10T06:52:11.860Z,836.00
2023-04-10T06:53:11.824Z,852.00
2023-04-10T06:54:11.833Z,849.00
2023-04-10T06:55:11.785Z,834.00
2023-04-10T06:56:11.785Z,837.00
2023-04-10T06:57:11.751Z,820.00
2023-04-10T06:58:11.793Z,812.00
2023-04-10T06:59:11.724Z,819.00
2023-04-10T07:00:11.715Z,808.00
2023-04-10T07:01:11.683Z,809.00
2023-04-10T07:02:11.668Z,810.00
2023-04-10T07:03:11.619Z,802.00
2023-04-10T07:04:11.712Z,786.00
2023-04-10T07:05:11.566Z,779.00
2023-04-10T07:06:11.599Z,788.00
2023-04-10T07:07:11.535Z,779.00
2023-04-10T07:08:11.542Z,778.00
2023-04-10T07:09:11.512Z,755.00
2023-04-10T07:10:11.516Z,762.00
2023-04-10T07:11:11.488Z,749.00
2023-04-10T07:12:11.516Z,747.00
2023-04-10T07:13:11.433Z,734.00
2023-04-10T07:14:11.440Z,732.00
2023-04-10T07:15:11.467Z,711.00
2023-04-10T07:16:11.482Z,715.00
2023-04-10T07:17:11.454Z,692.00
2023-04-10T07:18:11.471Z,695.00
2023-04-10T07:19:11.484Z,679.00
2023-04-10T07:20:11.463Z,670.00
2023-04-10T07:21:11.491Z,671.00
2023-04-10T07:22:11.486Z,661.00
2023-04-10T07:23:11.476Z,654.00
2023-04-10T07:24:11.485Z,652.00
2023-04-10T07:25:11.481Z,649.00
2023-04-10T07:26:11.515Z,639.00
2023-04-10T07:27:11.518Z,629.00
2023-04-10T07:28:11.508Z,634.00
2023-04-10T07:29:11.551Z,625.00
2023-04-10T07:30:13.381Z,633.00
2023-04-10T07:31:11.511Z,631.00
2023-04-10T07:32:11.685Z,627.00
2023-04-10T07:33:11.706Z,623.00
2023-04-10T07:34:11.621Z,631.00
2023-04-10T07:35:11.548Z,635.00
2023-04-10T07:36:11.644Z,637.00
2023-04-10T07:37:11.534Z,626.00
2023-04-10T07:38:11.522Z,635.00
2023-04-10T07:39:11.535Z,623.00
2023-04-10T07:40:11.545Z,633.00
2023-04-10T07:41:11.527Z,626.00
2023-04-10T07:42:11.536Z,621.00
2023-04-10T07:43:11.535Z,626.00
2023-04-10T07:44:11.533Z,627.00
2023-04-10T07:45:11.567Z,625.00
2023-04-10T07:46:11.596Z,633.00
2023-04-10T07:47:11.534Z,628.00
2023-04-10T07:48:11.518Z,625.00
2023-04-10T07:49:11.530Z,621.00
2023-04-10T07:50:11.523Z,623.00
2023-04-10T07:51:11.711Z,613.00
2023-04-10T07:52:11.498Z,608.00
2023-04-10T07:53:11.487Z,606.00
2023-04-10T07:54:11.445Z,592.00
2023-04-10T07:55:11.416Z,595.00
2023-04-10T07:56:11.409Z,587.00
2023-04-10T07:57:11.398Z,580.00
2023-04-10T07:58:11.394Z,579.00
2023-04-10T07:59:11.355Z,565.00
2023-04-10T08:00:11.319Z,562.00
2023-04-10T08:01:11.292Z,552.00
2023-04-10T08:02:11.340Z,554.00
2023-04-10T08:03:11.400Z,532.00
2023-04-10T08:04:11.404Z,509.00
2023-04-10T08:05:11.338Z,506.00
2023-04-10T08:06:11.224Z,501.00
2023-04-10T08:07:11.167Z,505.00
2023-04-10T08:08:11.133Z,501.00
2023-04-10T08:09:11.105Z,502.00
2023-04-10T08:10:11.112Z,508.00
2023-04-10T08:11:11.068Z,504.00
2023-04-10T08:12:11.034Z,503.00
2023-04-10T08:13:10.995Z,500.00
2023-04-10T08:14:10.999Z,500.00
2023-04-10T08:15:10.957Z,500.00
2023-04-10T08:16:10.942Z,499.00
2023-04-10T08:17:11.100Z,507.00
2023-04-10T08:18:10.894Z,505.00
2023-04-10T08:19:10.870Z,501.00
2023-04-10T08:20:10.841Z,506.00
2023-04-10T08:21:10.827Z,503.00
2023-04-10T08:22:10.794Z,498.00
2023-04-10T08:24:11.514Z,491.00
2023-04-10T08:25:10.786Z,482.00
2023-04-10T08:26:10.698Z,457.00
2023-04-10T08:27:10.658Z,453.00
2023-04-10T08:28:10.672Z,436.00
2023-04-10T08:29:10.641Z,479.00
2023-04-10T08:30:10.666Z,500.00
2023-04-10T08:31:10.621Z,500.00
2023-04-10T08:32:10.540Z,508.00
2023-04-10T08:33:10.519Z,514.00
2023-04-10T08:34:10.510Z,500.00
2023-04-10T08:35:10.476Z,502.00
2023-04-10T08:36:10.491Z,501.00
2023-04-10T08:37:11.926Z,500.00
2023-04-10T08:38:14.038Z,500.00
2023-04-10T08:39:10.379Z,493.00
2023-04-10T08:40:10.352Z,487.00
2023-04-10T08:41:10.347Z,473.00
2023-04-10T08:42:10.311Z,466.00
2023-04-10T08:43:10.311Z,483.00
2023-04-10T08:44:10.250Z,497.00
2023-04-10T08:45:10.259Z,501.00
2023-04-10T08:46:10.318Z,499.00
2023-04-10T08:47:10.184Z,499.00
2023-04-10T08:48:10.192Z,508.00
2023-04-10T08:49:10.184Z,524.00
2023-04-10T08:50:10.132Z,527.00
2023-04-10T08:51:15.536Z,529.00
2023-04-10T08:52:11.033Z,529.00
2023-04-10T08:53:10.019Z,532.00
2023-04-10T08:54:09.982Z,538.00
2023-04-10T08:55:09.934Z,544.00
2023-04-10T08:56:09.938Z,559.00
2023-04-10T08:57:11.044Z,559.00
2023-04-10T08:58:09.855Z,568.00
2023-04-10T08:59:09.827Z,589.00
2023-04-10T09:00:22.514Z,591.00
2023-04-10T09:01:10.784Z,592.00
2023-04-10T09:02:09.820Z,593.00
2023-04-10T09:03:09.788Z,601.00
2023-04-10T09:04:09.812Z,592.00
2023-04-10T09:05:09.676Z,597.00
2023-04-10T09:06:09.638Z,605.00
2023-04-10T09:07:09.598Z,622.00
2023-04-10T09:08:09.605Z,648.00
2023-04-10T09:09:09.571Z,657.00
2023-04-10T09:10:09.526Z,663.00
2023-04-10T09:11:09.508Z,685.00
2023-04-10T09:12:09.560Z,693.00
2023-04-10T09:13:09.580Z,712.00
2023-04-10T09:14:09.648Z,732.00
2023-04-10T09:15:09.676Z,745.00
2023-04-10T09:16:09.746Z,776.00
2023-04-10T09:17:09.765Z,770.00
2023-04-10T09:18:10.146Z,789.00
2023-04-10T09:19:09.836Z,778.00
2023-04-10T09:20:09.886Z,776.00
2023-04-10T09:21:09.916Z,770.00
2023-04-10T09:22:09.933Z,714.00
2023-04-10T09:23:09.935Z,749.00
2023-04-10T09:24:09.951Z,774.00
2023-04-10T09:25:09.936Z,769.00
2023-04-10T09:26:09.934Z,763.00
2023-04-10T09:27:09.984Z,717.00
2023-04-10T09:28:10.067Z,710.00
2023-04-10T09:29:10.043Z,712.00
2023-04-10T09:30:10.125Z,717.00
2023-04-10T09:31:10.136Z,732.00
2023-04-10T09:32:10.161Z,748.00
2023-04-10T09:33:10.360Z,769.00
2023-04-10T09:34:10.229Z,768.00
2023-04-10T09:35:10.258Z,769.00
2023-04-10T09:36:10.303Z,781.00
2023-04-10T09:37:10.337Z,776.00
2023-04-10T09:38:10.369Z,767.00
2023-04-10T09:39:10.402Z,766.00
2023-04-10T09:40:10.436Z,761.00
2023-04-10T09:41:10.461Z,756.00
2023-04-10T09:42:10.543Z,761.00
2023-04-10T09:43:10.515Z,756.00
2023-04-10T09:44:10.553Z,758.00
2023-04-10T09:45:10.513Z,727.00
2023-04-10T09:46:10.525Z,721.00
2023-04-10T09:47:10.454Z,712.00
2023-04-10T09:48:10.423Z,714.00
2023-04-10T09:49:10.379Z,715.00
2023-04-10T09:50:10.352Z,718.00
2023-04-10T09:51:10.318Z,695.00
2023-04-10T09:52:10.285Z,697.00
2023-04-10T09:53:10.268Z,698.00
2023-04-10T09:54:10.224Z,698.00
2023-04-10T09:55:10.191Z,657.00
2023-04-10T09:56:10.158Z,645.00
2023-04-10T09:57:10.108Z,621.00
2023-04-10T09:58:10.081Z,585.00
2023-04-10T09:59:10.038Z,584.00
2023-04-10T10:00:10.008Z,581.00
2023-04-10T10:01:09.975Z,587.00
2023-04-10T10:02:10.084Z,592.00
2023-04-10T10:03:10.116Z,579.00
2023-04-10T10:04:10.078Z,569.00
2023-04-10T10:05:10.099Z,567.00
2023-04-10T10:06:10.066Z,566.00
2023-04-10T10:07:10.108Z,574.00
2023-04-10T10:08:10.118Z,575.00
2023-04-10T10:09:10.071Z,562.00
2023-04-10T10:10:10.064Z,541.00
2023-04-10T10:11:10.029Z,546.00
2023-04-10T10:12:09.974Z,541.00
2023-04-10T10:13:09.919Z,541.00
2023-04-10T10:14:09.916Z,531.00
2023-04-10T10:15:09.843Z,535.00
2023-04-10T10:16:09.864Z,520.00
2023-04-10T10:17:09.782Z,528.00
2023-04-10T10:18:09.741Z,525.00
2023-04-10T10:19:09.749Z,525.00
2023-04-10T10:20:09.772Z,518.00
2023-04-10T10:21:09.787Z,510.00
2023-04-10T10:22:09.798Z,522.00
2023-04-10T10:23:09.821Z,512.00
2023-04-10T10:24:09.830Z,502.00
2023-04-10T10:25:09.830Z,504.00
2023-04-10T10:26:09.850Z,500.00
2023-04-10T10:27:09.865Z,511.00
2023-04-10T10:28:09.869Z,519.00
2023-04-10T10:29:09.959Z,518.00
2023-04-10T10:30:25.438Z,513.00
2023-04-10T10:31:09.901Z,505.00
2023-04-10T10:32:09.855Z,508.00
2023-04-10T10:33:09.826Z,508.00
2023-04-10T10:34:09.852Z,502.00
2023-04-10T10:35:09.746Z,488.00
2023-04-10T10:36:09.713Z,499.00
2023-04-10T10:37:09.674Z,516.00
2023-04-10T10:38:09.646Z,521.00
2023-04-10T10:39:09.630Z,514.00
2023-04-10T10:40:09.570Z,507.00
2023-04-10T10:41:09.532Z,506.00
2023-04-10T10:42:09.486Z,511.00
2023-04-10T10:43:09.560Z,514.00
2023-04-10T10:44:09.511Z,502.00
2023-04-10T10:45:09.525Z,500.00
2023-04-10T10:46:09.598Z,504.00
2023-04-10T10:47:09.549Z,512.00
2023-04-10T10:48:09.690Z,505.00
2023-04-10T10:49:09.574Z,501.00
2023-04-10T10:50:09.571Z,500.00
2023-04-10T10:51:09.578Z,500.00
2023-04-10T10:52:09.498Z,489.00
2023-04-10T10:53:09.457Z,480.00
2023-04-10T10:54:09.425Z,488.00
2023-04-10T10:55:09.395Z,488.00
2023-04-10T10:56:09.343Z,515.00
2023-04-10T10:57:09.328Z,518.00
2023-04-10T10:58:09.325Z,529.00
2023-04-10T10:59:09.247Z,548.00
2023-04-10T11:00:09.211Z,549.00
2023-04-10T11:01:10.225Z,518.00
2023-04-10T11:02:09.225Z,500.00
2023-04-10T11:03:09.409Z,500.00
2023-04-10T11:04:09.297Z,500.00
2023-04-10T11:05:09.137Z,499.00
2023-04-10T11:06:09.123Z,500.00
2023-04-10T11:07:09.098Z,508.00
2023-04-10T11:08:09.159Z,528.00
2023-04-10T11:09:09.076Z,550.00
2023-04-10T11:10:08.981Z,564.00
2023-04-10T11:11:09.918Z,581.00
2023-04-10T11:12:08.900Z,588.00
2023-04-10T11:13:08.859Z,572.00
2023-04-10T11:14:09.175Z,564.00
2023-04-10T11:15:08.838Z,549.00
2023-04-10T11:16:08.828Z,562.00
2023-04-10T11:17:08.764Z,572.00
2023-04-10T11:18:08.728Z,579.00
2023-04-10T11:19:14.140Z,584.00
2023-04-10T11:20:09.761Z,584.00
2023-04-10T11:21:08.717Z,585.00
2023-04-10T11:22:09.015Z,585.00
2023-04-10T11:23:08.586Z,590.00
2023-04-10T11:24:08.595Z,582.00
2023-04-10T11:25:08.591Z,569.00
2023-04-10T11:26:08.619Z,567.00
2023-04-10T11:27:08.688Z,568.00
2023-04-10T11:28:08.780Z,554.00
2023-04-10T11:29:08.776Z,547.00
2023-04-10T11:30:08.789Z,526.00
2023-04-10T11:31:08.788Z,514.00
2023-04-10T11:32:08.983Z,510.00
2023-04-10T11:33:08.745Z,512.00
2023-04-10T11:34:08.764Z,511.00
2023-04-10T11:35:08.580Z,507.00
2023-04-10T11:36:08.554Z,502.00
2023-04-10T11:37:08.509Z,503.00
2023-04-10T11:38:08.482Z,506.00
2023-04-10T11:39:08.430Z,505.00
2023-04-10T11:40:08.380Z,514.00
2023-04-10T11:41:08.352Z,512.00
2023-04-10T11:42:08.278Z,526.00
2023-04-10T11:43:08.241Z,525.00
2023-04-10T11:44:08.228Z,525.00
2023-04-10T11:45:08.202Z,533.00
2023-04-10T11:46:08.288Z,545.00
2023-04-10T11:47:08.190Z,542.00
2023-04-10T11:48:08.207Z,528.00
2023-04-10T11:49:08.195Z,543.00
2023-04-10T11:50:08.230Z,538.00
2023-04-10T11:51:08.260Z,543.00
2023-04-10T11:52:08.223Z,557.00
2023-04-10T11:53:08.236Z,556.00
2023-04-10T11:54:08.210Z,555.00
2023-04-10T11:55:08.181Z,555.00
2023-04-10T11:56:08.156Z,558.00
2023-04-10T11:57:08.092Z,561.00
2023-04-10T11:58:08.058Z,557.00
2023-04-10T11:59:08.077Z,555.00
2023-04-10T12:00:08.033Z,540.00
2023-04-10T12:01:07.944Z,538.00
2023-04-10T12:02:08.065Z,551.00
2023-04-10T12:03:08.047Z,564.00
2023-04-10T12:04:08.017Z,573.00
2023-04-10T12:05:07.774Z,596.00
2023-04-10T12:06:07.753Z,600.00
2023-04-10T12:07:07.704Z,595.00
2023-04-10T12:08:07.671Z,595.00
2023-04-10T12:09:07.609Z,587.00
2023-04-10T12:10:07.622Z,587.00
2023-04-10T12:11:07.591Z,570.00
2023-04-10T12:12:07.731Z,573.00
2023-04-10T12:13:07.717Z,584.00
2023-04-10T12:14:07.588Z,598.00
2023-04-10T12:15:07.612Z,597.00
2023-04-10T12:16:07.765Z,595.00
2023-04-10T12:17:07.590Z,605.00
2023-04-10T12:18:07.583Z,609.00
2023-04-10T12:19:07.595Z,617.00
2023-04-10T12:20:07.583Z,616.00
2023-04-10T12:21:08.651Z,616.00
2023-04-10T12:22:07.678Z,627.00
2023-04-10T12:23:07.571Z,627.00
2023-04-10T12:24:07.568Z,633.00
2023-04-10T12:25:07.561Z,628.00
2023-04-10T12:26:07.558Z,630.00
2023-04-10T12:27:07.570Z,638.00
2023-04-10T12:28:07.558Z,646.00